createdAt,value
2023-01-04T00:02:47.856Z,99053.38
2023-01-04T00:11:02.001Z,99043.22
2023-01-04T00:15:07.886Z,99046.84
2023-01-04T00:19:13.531Z,99035.03
2023-01-04T00:23:16.480Z,99032.66
2023-01-04T00:27:19.606Z,99038.19
2023-01-04T00:31:25.238Z,99036.53
2023-01-04T00:35:45.426Z,99027.22
2023-01-04T00:39:49.384Z,99035.09
2023-01-04T00:43:52.458Z,99035.94
2023-01-04T00:47:57.839Z,99027.22
2023-01-04T00:52:01.861Z,99025.31
2023-01-04T00:56:05.400Z,99019.31
2023-01-04T01:00:09.961Z,99024.63
2023-01-04T01:04:17.537Z,99026.81
2023-01-04T01:08:26.343Z,99032.06
2023-01-04T01:12:29.690Z,99030.84
2023-01-04T01:16:53.900Z,99031.28
2023-01-04T01:20:57.229Z,99031.28
2023-01-04T01:25:00.337Z,99034.94
2023-01-04T01:29:03.659Z,99023.94
2023-01-04T01:33:06.783Z,99026.03
2023-01-04T01:37:11.269Z,99025.50
2023-01-04T01:41:20.073Z,99020.16
2023-01-04T01:45:32.879Z,99015.81
2023-01-04T01:49:38.558Z,99014.75
2023-01-04T01:53:48.191Z,99012.16
2023-01-04T01:57:52.624Z,99013.91
2023-01-04T02:01:56.261Z,99000.94
2023-01-04T02:06:02.880Z,99000.03
2023-01-04T02:10:08.713Z,99005.22
2023-01-04T02:14:30.718Z,98997.44
2023-01-04T02:18:44.376Z,98994.84
2023-01-04T02:23:20.335Z,98999.19
2023-01-04T02:27:47.699Z,99005.22
2023-01-04T02:31:55.631Z,98998.34
2023-01-04T02:36:03.831Z,99005.44
2023-01-04T02:40:18.246Z,99005.44
2023-01-04T02:44:44.133Z,98997.13
2023-01-04T02:49:06.137Z,98985.13
2023-01-04T02:53:13.366Z,98982.84
2023-01-04T02:57:38.789Z,98987.66
2023-01-04T03:02:16.685Z,98965.66
2023-01-04T03:06:27.540Z,98974.59
2023-01-04T03:10:40.971Z,98973.16
2023-01-04T03:14:50.274Z,98973.34
2023-01-04T03:18:57.974Z,98968.59
2023-01-04T03:23:32.992Z,98946.03
2023-01-04T03:27:53.419Z,98954.84
2023-01-04T03:32:18.032Z,98955.06
2023-01-04T03:36:30.569Z,98959.53
2023-01-04T03:40:54.539Z,98952.78
2023-01-04T03:45:26.013Z,98943.44
2023-01-04T03:49:35.201Z,98951.28
2023-01-04T03:53:45.648Z,98951.44
2023-01-04T03:57:50.880Z,98940.31
2023-01-04T04:01:54.539Z,98944.56
2023-01-04T04:06:14.981Z,98935.03
2023-01-04T04:10:18.447Z,98927.16
2023-01-04T04:14:23.300Z,98925.31
2023-01-04T04:18:26.230Z,98916.63
2023-01-04T04:22:29.406Z,98920.13
2023-01-04T04:26:32.908Z,98925.31
2023-01-04T04:30:37.532Z,98913.19
2023-01-04T04:34:40.989Z,98906.44
2023-01-04T04:38:44.164Z,98905.72
2023-01-04T04:42:47.594Z,98908.41
2023-01-04T04:46:52.414Z,98902.31
2023-01-04T04:50:55.378Z,98894.66
2023-01-04T04:54:58.425Z,98895.56
2023-01-04T04:59:01.599Z,98905.59
2023-01-04T05:03:06.173Z,98899.00
2023-01-04T05:07:12.591Z,98914.03
2023-01-04T05:11:16.535Z,98913.09
2023-01-04T05:15:19.666Z,98909.66
2023-01-04T05:19:24.245Z,98911.44
2023-01-04T05:23:27.432Z,98906.88
2023-01-04T05:27:30.518Z,98897.13
2023-01-04T05:31:34.002Z,98903.97
2023-01-04T05:35:39.147Z,98896.72
2023-01-04T05:39:42.076Z,98898.34
2023-01-04T05:43:45.240Z,98904.97
2023-01-04T05:47:51.374Z,98904.75
2023-01-04T05:51:55.855Z,98896.16
2023-01-04T05:55:58.793Z,98898.63
2023-01-04T06:00:01.893Z,98896.16
2023-01-04T06:04:05.130Z,98897.72
2023-01-04T06:08:09.672Z,98892.53
2023-01-04T06:12:14.756Z,98902.91
2023-01-04T06:16:17.944Z,98901.13
2023-01-04T06:20:21.436Z,98894.19
2023-01-04T06:24:26.271Z,98885.47
2023-01-04T06:28:34.210Z,98887.13
2023-01-04T06:32:40.238Z,98889.94
2023-01-04T06:36:43.556Z,98878.00
2023-01-04T06:40:48.111Z,98892.75
2023-01-04T06:44:51.210Z,98883.44
2023-01-04T06:48:54.925Z,98882.81
2023-01-04T06:52:58.142Z,98895.88
2023-01-04T06:57:02.792Z,98879.47
2023-01-04T07:01:06.633Z,98874.50
2023-01-04T07:05:10.542Z,98878.88
2023-01-04T07:09:13.669Z,98874.50
2023-01-04T07:13:18.232Z,98872.66
2023-01-04T07:17:26.438Z,98874.31
2023-01-04T07:21:33.102Z,98869.00
2023-01-04T07:25:36.684Z,98878.34
2023-01-04T07:29:44.160Z,98869.63
2023-01-04T07:33:50.909Z,98875.53
2023-01-04T07:43:16.141Z,98878.63
2023-01-04T07:47:21.061Z,98874.06
2023-01-04T07:51:24.325Z,98873.94
2023-01-04T07:55:27.826Z,98872.81
2023-01-04T07:59:31.111Z,98877.13
2023-01-04T08:03:35.604Z,98873.72
2023-01-04T08:07:38.524Z,98875.38
2023-01-04T08:11:42.673Z,98883.66
2023-01-04T08:15:46.156Z,98874.72
2023-01-04T08:19:50.533Z,98877.94
2023-01-04T08:23:54.728Z,98880.31
2023-01-04T08:27:58.002Z,98869.81
2023-01-04T08:32:01.189Z,98882.34
2023-01-04T08:36:14.604Z,98876.00
2023-01-04T08:40:17.856Z,98873.06
2023-01-04T08:44:22.311Z,98877.56
2023-01-04T08:48:25.753Z,98882.09
2023-01-04T08:52:30.399Z,98866.66
2023-01-04T08:56:36.229Z,98862.69
2023-01-04T09:00:39.539Z,98863.66
2023-01-04T09:04:42.870Z,98870.28
2023-01-04T09:08:50.014Z,98862.16
2023-01-04T09:12:53.169Z,98849.06
2023-01-04T09:16:56.491Z,98854.84
2023-01-04T09:21:01.648Z,98856.84
2023-01-04T09:25:07.442Z,98850.13
2023-01-04T09:29:12.657Z,98846.25
2023-01-04T09:33:15.925Z,98852.84
2023-01-04T09:37:19.296Z,98843.88
2023-01-04T09:41:27.568Z,98847.06
2023-01-04T09:45:30.931Z,98835.63
2023-01-04T09:49:38.526Z,98825.59
2023-01-04T09:53:47.000Z,98824.41
2023-01-04T09:57:57.712Z,98810.94
2023-01-04T10:02:05.903Z,98808.69
2023-01-04T10:06:15.973Z,98812.72
2023-01-04T10:10:31.897Z,98802.31
2023-01-04T10:14:51.414Z,98796.88
2023-01-04T10:19:28.687Z,98803.88
2023-01-04T10:23:39.448Z,98779.41
2023-01-04T10:27:54.237Z,98781.06
2023-01-04T10:32:05.994Z,98768.78
2023-01-04T10:36:19.523Z,98755.44
2023-01-04T10:40:22.983Z,98745.47
2023-01-04T10:44:35.665Z,98743.47
2023-01-04T10:48:45.869Z,98734.84
2023-01-04T10:52:53.156Z,98724.31
2023-01-04T10:57:07.139Z,98718.03
2023-01-04T11:01:19.564Z,98716.72
2023-01-04T11:05:30.668Z,98716.34
2023-01-04T11:09:40.035Z,98704.06
2023-01-04T11:13:43.470Z,98710.09
2023-01-04T11:17:53.083Z,98705.56
2023-01-04T11:22:07.372Z,98698.84
2023-01-04T11:26:17.214Z,98691.88
2023-01-04T11:30:24.061Z,98687.75
2023-01-04T11:34:45.955Z,98679.81
2023-01-04T11:38:58.473Z,98675.22
2023-01-04T11:43:18.995Z,98671.53
2023-01-04T11:47:26.782Z,98662.63
2023-01-04T11:51:39.951Z,98661.31
2023-01-04T11:55:44.631Z,98649.59
2023-01-04T12:00:10.743Z,98641.13
2023-01-04T12:04:36.880Z,98648.28
2023-01-04T12:12:50.185Z,98621.78
2023-01-04T12:17:01.320Z,98621.16
2023-01-04T12:21:07.653Z,98607.06
2023-01-04T12:25:30.527Z,98600.78
2023-01-04T12:29:55.189Z,98588.03
2023-01-04T12:33:59.989Z,98573.22
2023-01-04T12:38:03.690Z,98577.50
2023-01-04T12:42:23.292Z,98571.19
2023-01-04T12:47:00.197Z,98561.31
2023-01-04T12:51:33.549Z,98551.63
2023-01-04T12:56:01.181Z,98540.81
2023-01-04T13:00:07.642Z,98545.75
2023-01-04T13:04:39.331Z,98538.59
2023-01-04T13:08:45.888Z,98534.75
2023-01-04T13:13:22.407Z,98533.00
2023-01-04T13:17:28.224Z,98532.03
2023-01-04T13:21:39.684Z,98540.50
2023-01-04T13:25:42.924Z,98534.63
2023-01-04T13:29:46.985Z,98536.97
2023-01-04T13:33:50.314Z,98539.13
2023-01-04T13:37:54.842Z,98539.84
2023-01-04T13:42:00.196Z,98535.03
2023-01-04T13:46:16.393Z,98537.19
2023-01-04T13:50:29.595Z,98538.81
2023-01-04T13:54:35.606Z,98533.00
2023-01-04T13:58:39.150Z,98532.44
2023-01-04T14:02:42.506Z,98523.06
2023-01-04T14:06:48.728Z,98515.38
2023-01-04T14:10:53.416Z,98513.53
2023-01-04T14:15:01.408Z,98523.06
2023-01-04T14:19:43.765Z,98516.28
2023-01-04T14:23:46.741Z,98517.72
2023-01-04T14:27:52.680Z,98516.56
2023-01-04T14:31:56.473Z,98527.47
2023-01-04T14:36:04.617Z,98506.38
2023-01-04T14:40:16.561Z,98497.19
2023-01-04T14:44:22.980Z,98477.28
2023-01-04T14:48:26.431Z,98474.91
2023-01-04T14:52:30.345Z,98472.44
2023-01-04T14:56:33.631Z,98465.44
2023-01-04T15:00:38.234Z,98468.28
2023-01-04T15:04:41.637Z,98463.34
2023-01-04T15:08:45.218Z,98436.44
2023-01-04T15:12:49.516Z,98439.97
2023-01-04T15:16:54.251Z,98421.56
2023-01-04T15:20:57.626Z,98411.56
2023-01-04T15:25:01.018Z,98415.34
2023-01-04T15:29:07.131Z,98414.78
2023-01-04T15:33:12.409Z,98421.75
2023-01-04T15:37:20.084Z,98414.91
2023-01-04T15:41:44.174Z,98412.19
2023-01-04T15:45:48.589Z,98404.63
2023-01-04T15:49:53.250Z,98412.06
2023-01-04T15:53:57.146Z,98415.47
2023-01-04T15:58:00.223Z,98413.56
2023-01-04T16:02:03.731Z,98432.44
2023-01-04T16:06:10.727Z,98420.19
2023-01-04T16:10:14.078Z,98413.56
2023-01-04T16:14:17.056Z,98401.56
2023-01-04T16:18:20.582Z,98387.75
2023-01-04T16:35:35.706Z,98327.34
2023-01-04T16:40:08.647Z,98312.03
2023-01-04T16:44:28.722Z,98305.19
2023-01-04T16:48:32.366Z,98312.03
2023-01-04T16:52:39.688Z,98305.75
2023-01-04T16:57:02.983Z,98309.63
2023-01-04T17:01:23.981Z,98302.00
2023-01-04T17:05:38.087Z,98296.06
2023-01-04T17:10:01.092Z,98295.03
2023-01-04T17:14:09.977Z,98280.34
2023-01-04T17:18:24.324Z,98283.66
2023-01-04T17:26:56.543Z,98275.88
2023-01-04T17:35:30.603Z,98266.38
2023-01-04T17:39:33.813Z,98272.94
2023-01-04T17:43:37.300Z,98274.16
2023-01-04T17:47:43.006Z,98255.41
2023-01-04T17:51:47.522Z,98259.22
2023-01-04T17:55:50.579Z,98249.94
2023-01-04T17:59:54.703Z,98248.38
2023-01-04T18:04:00.484Z,98252.78
2023-01-04T18:08:03.880Z,98258.09
2023-01-04T18:12:07.405Z,98247.72
2023-01-04T18:16:29.536Z,98241.69
2023-01-04T18:20:34.882Z,98246.09
2023-01-04T18:24:39.207Z,98235.97
2023-01-04T18:28:45.635Z,98230.78
2023-01-04T18:32:48.900Z,98230.78
2023-01-04T18:36:55.299Z,98227.47
2023-01-04T18:40:58.583Z,98222.00
2023-01-04T18:45:02.215Z,98213.22
2023-01-04T18:49:10.210Z,98207.41
2023-01-04T18:53:20.859Z,98208.69
2023-01-04T18:57:24.735Z,98198.88
2023-01-04T19:01:33.652Z,98205.19
2023-01-04T19:05:41.454Z,98199.41
2023-01-04T19:09:47.522Z,98183.31
2023-01-04T19:13:55.296Z,98186.72
2023-01-04T19:18:09.158Z,98196.97
2023-01-04T19:22:17.305Z,98201.78
2023-01-04T19:26:29.209Z,98207.00
2023-01-04T19:30:49.797Z,98218.97
2023-01-04T19:35:00.453Z,98210.34
2023-01-04T19:44:39.960Z,98187.97
2023-01-04T19:53:19.188Z,98192.34
2023-01-04T19:57:26.884Z,98182.56
2023-01-04T20:01:32.027Z,98172.78
2023-01-04T20:05:36.655Z,98173.59
2023-01-04T20:09:40.252Z,98183.13
2023-01-04T20:13:45.774Z,98184.84
2023-01-04T20:17:50.291Z,98175.88
2023-01-04T20:21:56.369Z,98163.19
2023-01-04T20:25:59.826Z,98154.91
2023-01-04T20:30:29.937Z,98154.59
2023-01-04T20:35:04.552Z,98133.69
2023-01-04T20:39:11.111Z,98132.81
2023-01-04T20:43:35.884Z,98121.50
2023-01-04T20:47:43.063Z,98115.00
2023-01-04T20:51:55.435Z,98111.44
2023-01-04T20:55:58.385Z,98107.06
2023-01-04T21:00:03.071Z,98104.59
2023-01-04T21:04:06.702Z,98088.66
2023-01-04T21:08:14.407Z,98101.91
2023-01-04T21:12:18.139Z,98093.94
2023-01-04T21:16:22.895Z,98088.94
2023-01-04T21:20:29.542Z,98084.16
2023-01-04T21:24:40.215Z,98095.53
2023-01-04T21:28:44.848Z,98094.31
2023-01-04T21:32:49.722Z,98095.81
2023-01-04T21:36:54.320Z,98096.84
2023-01-04T21:41:02.930Z,98088.56
2023-01-04T21:45:08.864Z,98083.84
2023-01-04T21:49:17.662Z,98073.25
2023-01-04T21:53:25.417Z,98078.19
2023-01-04T21:57:29.945Z,98071.66
2023-01-04T22:01:35.418Z,98078.72
2023-01-04T22:05:39.787Z,98074.69
2023-01-04T22:09:45.633Z,98074.38
2023-01-04T22:13:58.176Z,98085.47
2023-01-04T22:18:05.147Z,98071.09
2023-01-04T22:22:08.849Z,98074.34
2023-01-04T22:26:13.246Z,98072.16
2023-01-04T22:30:19.938Z,98072.13
2023-01-04T22:34:25.002Z,98061.66
2023-01-04T22:38:28.520Z,98058.19
2023-01-04T22:42:31.605Z,98050.63
2023-01-04T22:46:37.125Z,98028.56
2023-01-04T22:50:40.379Z,98028.56
2023-01-04T22:54:44.074Z,98028.13
2023-01-04T22:58:53.879Z,98023.09
2023-01-04T23:02:59.799Z,98022.47
2023-01-04T23:07:03.058Z,98011.56
2023-01-04T23:11:07.561Z,98017.63
2023-01-04T23:15:11.726Z,98026.16
2023-01-04T23:19:16.256Z,98022.81
2023-01-04T23:23:19.416Z,98015.97
2023-01-04T23:27:22.572Z,98017.97
2023-01-04T23:31:29.835Z,98019.94
2023-01-04T23:35:34.648Z,98022.72
2023-01-04T23:39:37.846Z,98020.31
2023-01-04T23:43:41.162Z,98026.50
2023-01-04T23:47:44.673Z,98009.69
2023-01-04T23:51:49.041Z,98002.19
2023-01-04T23:56:04.477Z,97989.13
